Time;durP1;ratioP1;P1;durP2;ratioP2;P2;SDS_P1;SDS_P2;PMS_P1;PMS_P2;Temp;Humidity;BMP_temperature;BMP_pressure;BME280_temperature;BME280_humidity;BME280_pressure;Samples;Min_cycle;Max_cycle;Signal;HPM_P1;HPM_P2
2022/10/14 00:01:39;;;;;;;19.15;10.02;;;;;;;;;;6036908;29;20457;-87
2022/10/14 00:04:41;;;;;;;20.13;10.60;;;;;;;;;;6027471;29;20048;-88
2022/10/14 00:07:43;;;;;;;19.45;10.15;;;;;;;;;;6024657;29;20053;-86
2022/10/14 00:10:44;;;;;;;19.02;10.07;;;;;;;;;;6041070;29;20420;-87
2022/10/14 00:13:47;;;;;;;18.13;10.40;;;;;;;;;;6019910;29;20117;-87
2022/10/14 00:16:52;;;;;;;16.52;9.50;;;;;;;;;;6041585;29;20049;-86
2022/10/14 00:19:53;;;;;;;14.80;9.32;;;;;;;;;;6030326;29;20049;-86
2022/10/14 00:22:55;;;;;;;18.23;9.93;;;;;;;;;;6025172;29;20049;-86
2022/10/14 00:25:57;;;;;;;16.55;9.90;;;;;;;;;;6039110;29;20057;-85
2022/10/14 00:29:06;;;;;;;19.45;9.70;;;;;;;;;;6038515;29;20449;-86
2022/10/14 00:32:08;;;;;;;16.73;10.00;;;;;;;;;;6010992;29;20108;-84
2022/10/14 00:35:10;;;;;;;15.60;9.20;;;;;;;;;;6040092;29;20139;-85
2022/10/14 00:38:12;;;;;;;16.67;9.82;;;;;;;;;;6044459;29;20057;-85
2022/10/14 00:41:20;;;;;;;17.77;10.18;;;;;;;;;;6042384;29;20049;-84
2022/10/14 00:44:22;;;;;;;15.13;10.35;;;;;;;;;;6025170;29;20049;-84
2022/10/14 00:47:23;;;;;;;17.88;9.52;;;;;;;;;;6043904;29;20051;-82
2022/10/14 00:50:25;;;;;;;18.60;9.68;;;;;;;;;;6049844;29;20141;-86
2022/10/14 00:53:26;;;;;;;15.30;8.98;;;;;;;;;;6053091;29;20072;-85
2022/10/14 00:56:30;;;;;;;18.90;9.70;;;;;;;;;;6047939;29;20053;-83
2022/10/14 00:59:33;;;;;;;17.95;9.88;;;;;;;;;;6054012;29;20154;-85
2022/10/14 01:02:35;;;;;;;17.40;9.05;;;;;;;;;;6029454;29;20061;-83
2022/10/14 01:05:47;;;;;;;18.88;10.20;;;;;;;;;;6043628;29;20052;-84
2022/10/14 01:09:02;;;;;;;18.88;9.07;;;;;;;;;;6012958;29;20592;-83
2022/10/14 01:12:31;;;;;;;15.15;8.93;;;;;;;;;;6013431;29;20049;-85
2022/10/14 01:15:35;;;;;;;14.35;8.95;;;;;;;;;;6023082;29;20065;-85
2022/10/14 01:18:52;;;;;;;14.82;9.13;;;;;;;;;;6041446;29;20513;-81
2022/10/14 01:22:02;;;;;;;18.88;9.52;;;;;;;;;;6041521;29;20072;-81
2022/10/14 01:25:18;;;;;;;16.35;9.32;;;;;;;;;;6042115;29;20117;-83
2022/10/14 01:28:20;;;;;;;16.48;8.98;;;;;;;;;;6039770;29;20036;-84
2022/10/14 01:31:31;;;;;;;14.90;9.07;;;;;;;;;;6043738;29;20037;-85
2022/10/14 01:34:39;;;;;;;19.13;9.43;;;;;;;;;;6039516;29;20047;-81
2022/10/14 01:37:52;;;;;;;18.80;9.85;;;;;;;;;;6039774;29;20045;-84
2022/10/14 01:41:24;;;;;;;16.02;9.63;;;;;;;;;;6027010;29;20523;-84
2022/10/14 01:44:29;;;;;;;17.25;9.05;;;;;;;;;;6026015;29;20041;-81
2022/10/14 01:47:33;;;;;;;18.45;10.05;;;;;;;;;;6027479;29;20259;-85
2022/10/14 01:50:37;;;;;;;19.55;10.38;;;;;;;;;;6030028;29;20055;-83
2022/10/14 01:53:42;;;;;;;18.73;10.40;;;;;;;;;;6025244;29;20226;-85
2022/10/14 01:56:46;;;;;;;19.42;10.18;;;;;;;;;;6042134;29;20113;-85
2022/10/14 01:59:50;;;;;;;16.85;10.02;;;;;;;;;;6040681;29;20166;-84
2022/10/14 02:02:51;;;;;;;23.58;10.40;;;;;;;;;;6034306;29;20049;-82
2022/10/14 02:06:04;;;;;;;20.15;10.32;;;;;;;;;;6026992;29;20045;-85
2022/10/14 02:09:30;;;;;;;18.13;10.17;;;;;;;;;;6028089;29;20808;-80
2022/10/14 02:12:41;;;;;;;17.70;9.45;;;;;;;;;;6047736;29;20045;-83
2022/10/14 02:15:52;;;;;;;15.70;9.75;;;;;;;;;;6033235;29;20132;-81
2022/10/14 02:19:24;;;;;;;17.15;9.55;;;;;;;;;;6023228;29;20040;-85
2022/10/14 02:22:29;;;;;;;19.23;9.70;;;;;;;;;;6016035;29;20060;-84
2022/10/14 02:25:34;;;;;;;16.92;9.93;;;;;;;;;;6039916;29;20167;-84
2022/10/14 02:28:38;;;;;;;18.65;9.75;;;;;;;;;;6003885;29;20078;-84
2022/10/14 02:31:42;;;;;;;18.40;9.70;;;;;;;;;;6021925;29;20094;-82
2022/10/14 02:34:50;;;;;;;16.52;9.27;;;;;;;;;;6029895;29;20052;-82
2022/10/14 02:37:54;;;;;;;17.60;9.57;;;;;;;;;;6022188;29;20513;-84
2022/10/14 02:41:02;;;;;;;16.35;9.32;;;;;;;;;;6039743;29;20056;-85
2022/10/14 02:44:04;;;;;;;17.13;8.65;;;;;;;;;;6025266;29;20104;-85
2022/10/14 02:47:06;;;;;;;13.57;7.60;;;;;;;;;;6020702;29;20052;-83
2022/10/14 02:50:08;;;;;;;12.93;7.40;;;;;;;;;;6021355;29;20064;-85
2022/10/14 02:53:14;;;;;;;14.13;7.72;;;;;;;;;;6040361;29;20044;-85
2022/10/14 02:56:19;;;;;;;15.10;8.02;;;;;;;;;;6037237;29;20049;-82
2022/10/14 02:59:20;;;;;;;14.77;8.63;;;;;;;;;;6027433;29;20069;-84
2022/10/14 03:02:22;;;;;;;12.88;7.90;;;;;;;;;;6038555;29;20041;-84
2022/10/14 03:05:24;;;;;;;15.70;8.77;;;;;;;;;;6022991;29;20045;-84
2022/10/14 03:08:28;;;;;;;14.27;7.75;;;;;;;;;;6021080;29;20049;-84
2022/10/14 03:11:31;;;;;;;14.95;8.10;;;;;;;;;;6025958;29;20056;-85
2022/10/14 03:14:38;;;;;;;14.63;8.00;;;;;;;;;;6023539;29;20566;-83
2022/10/14 03:17:42;;;;;;;14.63;8.20;;;;;;;;;;6021674;29;20041;-82
2022/10/14 03:20:47;;;;;;;16.13;8.52;;;;;;;;;;6036036;29;20041;-84
2022/10/14 03:23:53;;;;;;;15.23;8.10;;;;;;;;;;6027053;29;20049;-85
2022/10/14 03:27:04;;;;;;;14.25;7.50;;;;;;;;;;6032109;29;20127;-85
2022/10/14 03:30:07;;;;;;;13.90;7.32;;;;;;;;;;6035017;29;20045;-82
2022/10/14 03:33:13;;;;;;;11.82;6.93;;;;;;;;;;6027710;29;20045;-84
2022/10/14 03:36:27;;;;;;;10.50;6.47;;;;;;;;;;6018883;29;20053;-85
2022/10/14 03:39:30;;;;;;;10.40;6.43;;;;;;;;;;6023281;29;20037;-85
2022/10/14 03:42:37;;;;;;;10.35;5.63;;;;;;;;;;6037156;29;20136;-85
2022/10/14 03:45:43;;;;;;;9.57;5.88;;;;;;;;;;6029916;29;20041;-83
2022/10/14 03:48:46;;;;;;;11.35;6.60;;;;;;;;;;6023301;29;20061;-84
2022/10/14 03:51:48;;;;;;;9.68;6.20;;;;;;;;;;6028511;29;20050;-82
2022/10/14 03:54:56;;;;;;;11.40;6.63;;;;;;;;;;6030012;29;20569;-84
2022/10/14 03:57:58;;;;;;;12.10;6.70;;;;;;;;;;6037648;29;20065;-85
2022/10/14 04:01:00;;;;;;;11.02;6.38;;;;;;;;;;6010229;29;20079;-81
2022/10/14 04:04:22;;;;;;;12.65;6.38;;;;;;;;;;6068416;24;20075;-85
2022/10/14 04:07:24;;;;;;;14.95;7.07;;;;;;;;;;6043829;29;20049;-85
2022/10/14 04:10:30;;;;;;;10.20;6.78;;;;;;;;;;6030532;29;20048;-85
2022/10/14 04:13:35;;;;;;;11.07;6.10;;;;;;;;;;6035779;29;20569;-85
2022/10/14 04:16:39;;;;;;;11.85;6.22;;;;;;;;;;6041050;29;20176;-85
2022/10/14 04:19:46;;;;;;;13.00;6.68;;;;;;;;;;6048237;29;20064;-84
2022/10/14 04:22:50;;;;;;;10.13;6.40;;;;;;;;;;6042929;29;20053;-85
2022/10/14 04:25:53;;;;;;;10.15;6.10;;;;;;;;;;6042813;29;20686;-85
2022/10/14 04:28:57;;;;;;;11.73;6.65;;;;;;;;;;6030676;29;20056;-84
2022/10/14 04:32:08;;;;;;;9.55;5.75;;;;;;;;;;6057922;29;20048;-85
2022/10/14 04:35:10;;;;;;;10.85;5.35;;;;;;;;;;6045058;29;20511;-84
2022/10/14 04:38:18;;;;;;;12.82;6.10;;;;;;;;;;6049292;29;20128;-85
2022/10/14 04:41:27;;;;;;;10.88;5.40;;;;;;;;;;6032322;29;20431;-85
2022/10/14 04:44:31;;;;;;;8.90;5.78;;;;;;;;;;6047157;29;20048;-84
2022/10/14 04:47:36;;;;;;;10.43;6.13;;;;;;;;;;6030463;29;20053;-85
2022/10/14 04:50:38;;;;;;;7.70;5.18;;;;;;;;;;6049703;29;20056;-85
2022/10/14 04:54:18;;;;;;;8.80;5.15;;;;;;;;;;5987024;29;20053;-85
2022/10/14 04:57:24;;;;;;;11.57;5.57;;;;;;;;;;5966742;29;20545;-84
2022/10/14 05:00:27;;;;;;;8.52;5.72;;;;;;;;;;6038337;29;20053;-85
2022/10/14 05:03:36;;;;;;;11.30;5.35;;;;;;;;;;6045443;29;20064;-85
2022/10/14 05:06:38;;;;;;;8.20;4.88;;;;;;;;;;6039055;29;20056;-84
2022/10/14 05:09:42;;;;;;;9.10;5.30;;;;;;;;;;6052752;29;20058;-85
2022/10/14 05:12:57;;;;;;;9.43;5.45;;;;;;;;;;6056796;29;20055;-86
2022/10/14 05:16:04;;;;;;;11.27;5.88;;;;;;;;;;6067388;29;20076;-84
2022/10/14 05:19:06;;;;;;;;;;;;;;;;;;6053597;29;20052;-84
2022/10/14 05:22:12;;;;;;;11.85;5.50;;;;;;;;;;6043396;29;20003;-84
2022/10/14 05:25:18;;;;;;;9.48;5.47;;;;;;;;;;6055016;29;20056;-84
2022/10/14 05:28:20;;;;;;;10.98;6.28;;;;;;;;;;6055228;29;20085;-84
2022/10/14 05:31:23;;;;;;;;;;;;;;;;;;6070470;29;20140;-84
2022/10/14 05:34:34;;;;;;;10.45;6.72;;;;;;;;;;6056332;29;19930;-84
2022/10/14 05:37:39;;;;;;;10.48;6.50;;;;;;;;;;6060291;29;20044;-85
2022/10/14 05:40:41;;;;;;;11.60;6.35;;;;;;;;;;6051810;29;20044;-84
2022/10/14 05:43:43;;;;;;;33.35;17.80;;;;;;;;;;6044841;29;20053;-84
2022/10/14 05:46:45;;;;;;;16.10;9.13;;;;;;;;;;6045104;29;20059;-84
2022/10/14 05:49:48;;;;;;;57.00;25.15;;;;;;;;;;6052933;29;20119;-84
2022/10/14 05:52:51;;;;;;;35.08;17.98;;;;;;;;;;6058323;29;20044;-84
2022/10/14 05:56:05;;;;;;;36.22;18.48;;;;;;;;;;6045114;29;20069;-84
2022/10/14 05:59:09;;;;;;;31.95;16.48;;;;;;;;;;6052114;29;20048;-84
2022/10/14 06:02:10;;;;;;;25.42;14.38;;;;;;;;;;6050064;29;20053;-84
2022/10/14 06:05:13;;;;;;;19.67;11.07;;;;;;;;;;6058146;29;20068;-84
2022/10/14 06:08:15;;;;;;;20.27;11.68;;;;;;;;;;6051023;29;20056;-84
2022/10/14 06:11:18;;;;;;;20.80;11.95;;;;;;;;;;6043531;29;20052;-83
2022/10/14 06:14:20;;;;;;;14.05;8.43;;;;;;;;;;6039786;29;20085;-84
2022/10/14 06:17:25;;;;;;;12.85;7.30;;;;;;;;;;6038938;29;20431;-86
2022/10/14 06:20:28;;;;;;;10.95;7.03;;;;;;;;;;6058944;29;20120;-86
2022/10/14 06:23:30;;;;;;;14.82;9.10;;;;;;;;;;6041884;29;20048;-83
2022/10/14 06:26:32;;;;;;;12.88;7.68;;;;;;;;;;6065159;29;20418;-83
2022/10/14 06:29:36;;;;;;;12.88;7.28;;;;;;;;;;6056646;29;20434;-84
2022/10/14 06:32:38;;;;;;;14.38;10.40;;;;;;;;;;6061163;29;20045;-84
2022/10/14 06:35:40;;;;;;;13.57;8.02;;;;;;;;;;6064199;29;20571;-84
2022/10/14 06:38:42;;;;;;;13.73;7.93;;;;;;;;;;6077185;29;20131;-84
2022/10/14 06:41:43;;;;;;;14.80;8.02;;;;;;;;;;6064902;29;20053;-84
2022/10/14 06:44:52;;;;;;;14.18;9.50;;;;;;;;;;6065064;29;20055;-84
2022/10/14 06:47:54;;;;;;;12.63;6.57;;;;;;;;;;6059459;29;20061;-84
2022/10/14 06:50:59;;;;;;;13.35;8.50;;;;;;;;;;6057207;29;20044;-84
2022/10/14 06:54:00;;;;;;;10.35;6.82;;;;;;;;;;6040782;29;20388;-84
2022/10/14 06:57:02;;;;;;;9.13;6.55;;;;;;;;;;6076040;29;20048;-84
2022/10/14 07:00:05;;;;;;;12.63;7.07;;;;;;;;;;6056200;29;20075;-84
2022/10/14 07:03:08;;;;;;;15.68;9.00;;;;;;;;;;6054682;29;20055;-84
2022/10/14 07:06:10;;;;;;;14.18;7.82;;;;;;;;;;6058293;29;20059;-84
2022/10/14 07:09:12;;;;;;;11.15;7.35;;;;;;;;;;6059198;29;20496;-84
2022/10/14 07:12:14;;;;;;;13.15;8.27;;;;;;;;;;6071283;29;20044;-84
2022/10/14 07:15:15;;;;;;;13.30;7.82;;;;;;;;;;6043722;29;20048;-84
2022/10/14 07:18:17;;;;;;;11.75;7.43;;;;;;;;;;6035492;29;20041;-84
2022/10/14 07:21:22;;;;;;;12.00;7.50;;;;;;;;;;6069075;29;20053;-83
2022/10/14 07:24:24;;;;;;;13.00;7.18;;;;;;;;;;6052791;29;20060;-84
2022/10/14 07:27:26;;;;;;;14.73;8.10;;;;;;;;;;6053476;29;20404;-84
2022/10/14 07:30:27;;;;;;;11.80;7.85;;;;;;;;;;6042860;29;20091;-84
2022/10/14 07:33:29;;;;;;;10.32;6.88;;;;;;;;;;6068506;29;20049;-84
2022/10/14 07:36:31;;;;;;;11.90;7.82;;;;;;;;;;6038677;29;20075;-85
2022/10/14 07:39:33;;;;;;;11.80;6.10;;;;;;;;;;6054472;29;20061;-85
2022/10/14 07:42:34;;;;;;;10.02;5.95;;;;;;;;;;6074607;29;20049;-84
2022/10/14 07:45:39;;;;;;;9.07;6.15;;;;;;;;;;6077619;29;20108;-85
2022/10/14 07:48:41;;;;;;;11.18;6.90;;;;;;;;;;6058096;29;20104;-84
2022/10/14 07:51:58;;;;;;;12.60;6.78;;;;;;;;;;6063128;29;20283;-85
2022/10/14 07:54:59;;;;;;;11.15;6.85;;;;;;;;;;6076709;29;20072;-84
2022/10/14 07:58:01;;;;;;;13.70;7.70;;;;;;;;;;6073520;29;20096;-84
2022/10/14 08:01:03;;;;;;;13.10;6.90;;;;;;;;;;6055476;29;20045;-84
2022/10/14 08:04:05;;;;;;;13.52;8.32;;;;;;;;;;6053716;29;20063;-84
2022/10/14 08:07:07;;;;;;;16.00;7.80;;;;;;;;;;6039697;29;20060;-84
2022/10/14 08:10:08;;;;;;;15.27;7.85;;;;;;;;;;6055386;29;20063;-84
2022/10/14 08:13:10;;;;;;;12.75;7.32;;;;;;;;;;6055484;29;20751;-84
2022/10/14 08:16:15;;;;;;;12.48;7.53;;;;;;;;;;6073847;29;20159;-84
2022/10/14 08:19:16;;;;;;;14.13;7.90;;;;;;;;;;6054644;29;20045;-83
2022/10/14 08:22:18;;;;;;;15.45;8.85;;;;;;;;;;6071391;29;20052;-83
2022/10/14 08:25:21;;;;;;;13.60;8.00;;;;;;;;;;6068855;29;20125;-84
2022/10/14 08:28:24;;;;;;;12.93;7.72;;;;;;;;;;6055448;29;20155;-83
2022/10/14 08:31:26;;;;;;;15.32;8.82;;;;;;;;;;6057317;29;20045;-84
2022/10/14 08:34:28;;;;;;;13.75;7.50;;;;;;;;;;6054095;29;20060;-85
2022/10/14 08:37:30;;;;;;;13.68;8.13;;;;;;;;;;6053517;29;20073;-85
2022/10/14 08:40:48;;;;;;;14.40;7.55;;;;;;;;;;6047518;29;20057;-84
2022/10/14 08:44:24;;;;;;;13.60;7.43;;;;;;;;;;6060781;29;20048;-84
2022/10/14 08:47:35;;;;;;;15.20;8.23;;;;;;;;;;6057644;29;20490;-84
2022/10/14 08:50:45;;;;;;;13.88;8.65;;;;;;;;;;6045423;29;20040;-84
2022/10/14 08:53:55;;;;;;;13.40;7.25;;;;;;;;;;6064970;29;20052;-84
2022/10/14 08:56:58;;;;;;;13.45;7.93;;;;;;;;;;6079030;29;20052;-83
2022/10/14 09:00:01;;;;;;;15.25;8.18;;;;;;;;;;6064151;29;20063;-84
2022/10/14 09:03:14;;;;;;;17.37;8.27;;;;;;;;;;6059793;29;20056;-84
2022/10/14 09:06:24;;;;;;;13.60;8.25;;;;;;;;;;6076787;29;20135;-84
2022/10/14 09:09:40;;;;;;;14.15;8.32;;;;;;;;;;6061106;29;20645;-84
2022/10/14 09:12:42;;;;;;;15.85;9.23;;;;;;;;;;6062106;29;20097;-84
2022/10/14 09:15:48;;;;;;;15.85;9.07;;;;;;;;;;6080928;29;20436;-84
2022/10/14 09:18:54;;;;;;;16.48;9.38;;;;;;;;;;6076133;29;20525;-84
2022/10/14 09:21:58;;;;;;;16.63;9.20;;;;;;;;;;6063571;29;20512;-84
2022/10/14 09:25:00;;;;;;;17.88;10.82;;;;;;;;;;6079722;29;20061;-83
2022/10/14 09:28:01;;;;;;;17.08;9.50;;;;;;;;;;6078553;29;20045;-84
2022/10/14 09:31:05;;;;;;;18.80;10.05;;;;;;;;;;6047854;29;20389;-83
2022/10/14 09:34:18;;;;;;;16.92;9.38;;;;;;;;;;6075145;29;20052;-84
2022/10/14 09:37:36;;;;;;;19.77;10.88;;;;;;;;;;6070797;29;20052;-83
2022/10/14 09:40:44;;;;;;;17.58;9.95;;;;;;;;;;6075319;29;20048;-84
2022/10/14 09:44:21;;;;;;;18.55;9.82;;;;;;;;;;6079512;29;20077;-83
2022/10/14 09:47:23;;;;;;;19.00;10.52;;;;;;;;;;6075486;29;20176;-83
2022/10/14 09:50:38;;;;;;;15.37;9.17;;;;;;;;;;6050702;29;20041;-84
2022/10/14 09:53:45;;;;;;;17.23;9.05;;;;;;;;;;6060747;29;20441;-84
2022/10/14 09:56:58;;;;;;;14.68;8.60;;;;;;;;;;6075844;29;20049;-83
2022/10/14 10:00:03;;;;;;;14.73;8.82;;;;;;;;;;6058691;29;20119;-84
2022/10/14 10:03:06;;;;;;;15.90;9.70;;;;;;;;;;6081175;29;20069;-83
2022/10/14 10:06:10;;;;;;;19.17;8.73;;;;;;;;;;6069231;29;20108;-83
2022/10/14 10:09:17;;;;;;;17.27;8.60;;;;;;;;;;6045646;29;20052;-84
2022/10/14 10:12:33;;;;;;;14.73;8.85;;;;;;;;;;6055099;29;20055;-85
2022/10/14 10:15:36;;;;;;;14.65;8.95;;;;;;;;;;6082069;29;20029;-85
2022/10/14 10:18:37;;;;;;;15.07;8.88;;;;;;;;;;6040048;29;20048;-84
2022/10/14 10:21:39;;;;;;;15.93;9.13;;;;;;;;;;6058226;29;20045;-84
2022/10/14 10:24:40;;;;;;;16.73;9.05;;;;;;;;;;6051926;29;22309;-83
2022/10/14 10:27:47;;;;;;;16.70;8.98;;;;;;;;;;6063955;29;20054;-82
2022/10/14 10:31:03;;;;;;;17.05;7.88;;;;;;;;;;6064075;29;20053;-84
2022/10/14 10:34:08;;;;;;;14.25;8.65;;;;;;;;;;6067302;29;20112;-84
2022/10/14 10:37:21;;;;;;;15.30;8.23;;;;;;;;;;6062649;29;20059;-83
2022/10/14 10:40:28;;;;;;;;;;;;;;;;;;6065413;29;20127;-85
2022/10/14 10:43:52;;;;;;;14.52;8.73;;;;;;;;;;6075149;29;20429;-84
2022/10/14 10:46:54;;;;;;;15.05;8.38;;;;;;;;;;6061528;29;20049;-85
2022/10/14 10:50:19;;;;;;;17.07;8.37;;;;;;;;;;6077705;29;20131;-85
2022/10/14 10:53:42;;;;;;;14.55;8.50;;;;;;;;;;6077586;29;20048;-84
2022/10/14 10:56:50;;;;;;;11.70;7.78;;;;;;;;;;6079946;29;20052;-84
2022/10/14 10:59:58;;;;;;;14.85;7.47;;;;;;;;;;6061548;29;20104;-84
2022/10/14 11:03:15;;;;;;;15.35;8.43;;;;;;;;;;6077991;29;20117;-84
2022/10/14 11:14:02;;;;;;;14.38;7.60;;;;;;;;;;6054004;29;20121;-84
2022/10/14 11:17:24;;;;;;;13.80;7.88;;;;;;;;;;6024741;29;20045;-84
2022/10/14 11:21:07;;;;;;;47.20;24.42;;;;;;;;;;6044983;29;20049;-85
2022/10/14 11:24:27;;;;;;;12.13;8.30;;;;;;;;;;6044442;29;20052;-85
2022/10/14 11:27:40;;;;;;;12.70;7.28;;;;;;;;;;6063046;29;20139;-85
2022/10/14 11:31:00;;;;;;;13.63;7.70;;;;;;;;;;6039346;29;20048;-84
2022/10/14 11:34:29;;;;;;;12.68;7.07;;;;;;;;;;6067459;29;20128;-84
2022/10/14 11:37:39;;;;;;;13.13;8.02;;;;;;;;;;6038703;29;20053;-85
2022/10/14 11:40:48;;;;;;;13.55;7.75;;;;;;;;;;6037079;29;20052;-84
2022/10/14 11:44:25;;;;;;;12.27;7.72;;;;;;;;;;6034876;29;20766;-84
2022/10/14 11:47:31;;;;;;;10.77;6.82;;;;;;;;;;6048504;29;20056;-84
2022/10/14 11:50:39;;;;;;;13.57;7.65;;;;;;;;;;6054079;29;20053;-85
2022/10/14 11:54:04;;;;;;;10.27;7.38;;;;;;;;;;6075085;29;20032;-86
2022/10/14 11:57:16;;;;;;;11.82;7.68;;;;;;;;;;6060833;29;20048;-85
2022/10/14 12:03:47;;;;;;;11.52;6.90;;;;;;;;;;6062892;29;20067;-84
2022/10/14 12:07:01;;;;;;;11.70;7.05;;;;;;;;;;6059532;29;20044;-84
2022/10/14 12:10:26;;;;;;;11.73;6.82;;;;;;;;;;6078254;29;20472;-84
2022/10/14 12:13:37;;;;;;;11.25;6.32;;;;;;;;;;6049830;29;20131;-85
2022/10/14 12:16:41;;;;;;;11.77;6.95;;;;;;;;;;6078194;29;20101;-84
2022/10/14 12:19:45;;;;;;;11.70;7.50;;;;;;;;;;6058808;29;20055;-84
2022/10/14 12:22:48;;;;;;;12.38;7.40;;;;;;;;;;6070769;29;20057;-84
2022/10/14 12:26:00;;;;;;;11.50;7.60;;;;;;;;;;6068483;29;20045;-83
2022/10/14 12:29:14;;;;;;;9.15;6.10;;;;;;;;;;6067875;29;20053;-82
2022/10/14 12:32:15;;;;;;;11.02;6.75;;;;;;;;;;6068697;29;20131;-82
2022/10/14 12:35:44;;;;;;;10.27;6.38;;;;;;;;;;6068746;29;20128;-82
2022/10/14 12:39:18;;;;;;;8.60;5.68;;;;;;;;;;6055549;29;20522;-82
2022/10/14 12:42:20;;;;;;;11.30;6.57;;;;;;;;;;6049953;29;20065;-82
2022/10/14 12:45:28;;;;;;;10.95;6.13;;;;;;;;;;6058891;29;20088;-82
2022/10/14 12:48:35;;;;;;;10.60;5.82;;;;;;;;;;6051410;29;20060;-82
2022/10/14 12:51:36;;;;;;;11.20;6.43;;;;;;;;;;6052022;29;20072;-83
2022/10/14 12:54:47;;;;;;;8.25;5.25;;;;;;;;;;6052919;29;20173;-81
2022/10/14 12:57:54;;;;;;;9.07;5.72;;;;;;;;;;6055201;29;20049;-81
2022/10/14 13:01:00;;;;;;;8.90;5.70;;;;;;;;;;6066192;29;20037;-81
2022/10/14 13:04:17;;;;;;;7.53;5.25;;;;;;;;;;6047762;29;20495;-82
2022/10/14 13:07:36;;;;;;;7.65;5.10;;;;;;;;;;6052487;29;20068;-82
2022/10/14 13:10:43;;;;;;;9.00;5.97;;;;;;;;;;6051956;29;20044;-83
2022/10/14 13:13:52;;;;;;;8.77;5.35;;;;;;;;;;6055450;29;20160;-83
2022/10/14 13:17:14;;;;;;;8.40;5.07;;;;;;;;;;6051720;29;20415;-83
2022/10/14 13:20:34;;;;;;;10.32;6.15;;;;;;;;;;6069681;29;20180;-83
2022/10/14 13:23:43;;;;;;;7.50;5.25;;;;;;;;;;6065609;29;20633;-82
2022/10/14 13:26:54;;;;;;;9.10;6.05;;;;;;;;;;6050281;29;21366;-82
2022/10/14 13:30:16;;;;;;;8.85;6.00;;;;;;;;;;6070812;29;20041;-82
2022/10/14 13:33:25;;;;;;;8.75;5.65;;;;;;;;;;6035341;29;20128;-82
2022/10/14 13:36:41;;;;;;;8.00;5.60;;;;;;;;;;6064169;29;20057;-83
2022/10/14 13:39:43;;;;;;;9.95;6.47;;;;;;;;;;6035321;29;20060;-83
2022/10/14 13:42:53;;;;;;;8.40;5.80;;;;;;;;;;6066972;29;20417;-83
2022/10/14 13:46:01;;;;;;;9.23;6.20;;;;;;;;;;6062287;29;20040;-83
2022/10/14 13:49:06;;;;;;;9.77;5.50;;;;;;;;;;6047437;29;20075;-83
2022/10/14 13:52:17;;;;;;;9.27;6.38;;;;;;;;;;6049870;29;20053;-84
2022/10/14 13:55:22;;;;;;;8.52;5.63;;;;;;;;;;6074581;29;20120;-83
2022/10/14 13:58:24;;;;;;;9.77;6.57;;;;;;;;;;6073550;29;20059;-83
2022/10/14 14:01:35;;;;;;;7.80;5.32;;;;;;;;;;6073274;29;20044;-83
2022/10/14 14:04:36;;;;;;;8.35;5.97;;;;;;;;;;6071337;29;20052;-83
2022/10/14 14:07:38;;;;;;;12.00;6.40;;;;;;;;;;6033434;29;20048;-84
2022/10/14 14:11:02;;;;;;;7.97;5.57;;;;;;;;;;6049360;29;25130;-84
2022/10/14 14:14:21;;;;;;;6.05;4.70;;;;;;;;;;6068242;29;20061;-84
2022/10/14 14:17:30;;;;;;;9.23;6.18;;;;;;;;;;6056929;29;20468;-84
2022/10/14 14:20:34;;;;;;;5.63;4.88;;;;;;;;;;6070794;29;20104;-84
2022/10/14 14:23:35;;;;;;;8.00;6.05;;;;;;;;;;6065453;29;20074;-85
2022/10/14 14:26:38;;;;;;;9.25;6.28;;;;;;;;;;6076505;29;20085;-85
2022/10/14 14:29:43;;;;;;;11.70;7.57;;;;;;;;;;6083366;29;20072;-84
2022/10/14 14:32:46;;;;;;;7.43;5.57;;;;;;;;;;6072721;29;20162;-83
2022/10/14 14:35:54;;;;;;;9.55;7.22;;;;;;;;;;6051104;29;20389;-83
2022/10/14 14:39:01;;;;;;;6.40;4.38;;;;;;;;;;6060078;29;20049;-84
2022/10/14 14:42:03;;;;;;;7.05;5.25;;;;;;;;;;6042025;29;20045;-83
2022/10/14 14:45:21;;;;;;;6.68;4.05;;;;;;;;;;6037292;29;20067;-83
2022/10/14 14:48:23;;;;;;;5.68;4.32;;;;;;;;;;6049859;29;20413;-83
2022/10/14 14:51:34;;;;;;;10.20;5.68;;;;;;;;;;6072874;29;20064;-84
2022/10/14 14:54:43;;;;;;;7.20;5.07;;;;;;;;;;6038067;29;20136;-84
2022/10/14 14:57:45;;;;;;;4.30;3.33;;;;;;;;;;6072206;29;20123;-84
2022/10/14 15:00:48;;;;;;;6.60;3.85;;;;;;;;;;6072963;29;20055;-84
2022/10/14 15:03:50;;;;;;;6.88;4.28;;;;;;;;;;6040018;29;20056;-84
2022/10/14 15:07:20;;;;;;;7.45;4.15;;;;;;;;;;6055333;29;20055;-84
2022/10/14 15:10:29;;;;;;;6.85;4.57;;;;;;;;;;6059859;29;20055;-84
2022/10/14 15:13:43;;;;;;;6.15;3.65;;;;;;;;;;6045675;29;20143;-84
2022/10/14 15:16:52;;;;;;;4.60;3.17;;;;;;;;;;6057777;29;20059;-85
2022/10/14 15:20:03;;;;;;;3.25;2.67;;;;;;;;;;6060940;29;20104;-85
2022/10/14 15:23:37;;;;;;;3.70;2.85;;;;;;;;;;6061429;29;20055;-84
2022/10/14 15:26:38;;;;;;;3.53;3.22;;;;;;;;;;6063691;29;20057;-84
2022/10/14 15:29:40;;;;;;;4.15;2.70;;;;;;;;;;6052599;29;20056;-85
2022/10/14 15:32:43;;;;;;;4.18;2.97;;;;;;;;;;6034652;29;20044;-84
2022/10/14 15:35:57;;;;;;;3.42;3.10;;;;;;;;;;6035901;29;20055;-83
2022/10/14 15:39:00;;;;;;;4.82;3.25;;;;;;;;;;6059855;29;20053;-84
2022/10/14 15:42:09;;;;;;;3.95;2.78;;;;;;;;;;6070465;29;20051;-83
2022/10/14 15:45:11;;;;;;;3.65;3.22;;;;;;;;;;6065865;29;20449;-83
2022/10/14 15:48:18;;;;;;;5.95;3.35;;;;;;;;;;6040381;29;20065;-83
2022/10/14 15:51:24;;;;;;;4.53;3.25;;;;;;;;;;6054114;29;20105;-83
2022/10/14 15:54:26;;;;;;;4.85;3.83;;;;;;;;;;6056694;29;20058;-82
2022/10/14 15:57:28;;;;;;;7.30;3.72;;;;;;;;;;6073129;29;20081;-83
2022/10/14 16:00:32;;;;;;;5.68;3.97;;;;;;;;;;6074010;29;20052;-84
2022/10/14 16:03:35;;;;;;;4.97;3.63;;;;;;;;;;6059814;29;20041;-83
2022/10/14 16:06:43;;;;;;;5.40;4.10;;;;;;;;;;6064928;29;20092;-84
2022/10/14 16:09:45;;;;;;;5.88;4.80;;;;;;;;;;6075205;29;20059;-83
2022/10/14 16:12:48;;;;;;;8.40;5.93;;;;;;;;;;6058632;29;20069;-83
2022/10/14 16:15:57;;;;;;;12.23;8.80;;;;;;;;;;6060444;29;20049;-83
2022/10/14 16:19:02;;;;;;;12.52;9.52;;;;;;;;;;6058092;29;20044;-83
2022/10/14 16:22:04;;;;;;;12.25;10.32;;;;;;;;;;6056617;29;20059;-84
2022/10/14 16:25:15;;;;;;;9.13;8.15;;;;;;;;;;6074379;29;20044;-84
2022/10/14 16:28:17;;;;;;;9.38;8.38;;;;;;;;;;6074104;29;20048;-84
2022/10/14 16:31:20;;;;;;;7.82;6.95;;;;;;;;;;6060111;29;20083;-85
2022/10/14 16:34:26;;;;;;;9.43;8.43;;;;;;;;;;6038813;29;20063;-85
2022/10/14 16:37:28;;;;;;;11.82;9.85;;;;;;;;;;6041150;29;20049;-84
2022/10/14 16:40:29;;;;;;;9.80;5.45;;;;;;;;;;6054580;29;20511;-87
2022/10/14 16:43:39;;;;;;;11.18;7.20;;;;;;;;;;6053030;29;20499;-85
2022/10/14 16:50:00;;;;;;;21.02;14.15;;;;;;;;;;6069205;29;20048;-85
2022/10/14 16:59:44;;;;;;;4.95;4.07;;;;;;;;;;6061490;29;21557;-85
2022/10/14 17:02:46;;;;;;;6.97;5.30;;;;;;;;;;6048088;29;20052;-86
2022/10/14 17:05:55;;;;;;;10.80;8.30;;;;;;;;;;6063720;29;20061;-85
2022/10/14 17:08:57;;;;;;;12.82;8.32;;;;;;;;;;6043169;29;20092;-87
2022/10/14 17:11:59;;;;;;;18.88;10.40;;;;;;;;;;6060980;29;20435;-87
2022/10/14 17:15:01;;;;;;;19.42;10.65;;;;;;;;;;6062212;29;20052;-85
2022/10/14 17:18:02;;;;;;;16.60;9.98;;;;;;;;;;6060390;29;20052;-86
2022/10/14 17:21:07;;;;;;;12.20;7.93;;;;;;;;;;6044149;29;20049;-85
2022/10/14 17:24:09;;;;;;;12.48;7.32;;;;;;;;;;6063573;29;20068;-85
2022/10/14 17:27:11;;;;;;;16.40;10.95;;;;;;;;;;6042141;29;20056;-85
2022/10/14 17:30:13;;;;;;;13.25;9.15;;;;;;;;;;6060583;29;20044;-86
2022/10/14 17:33:14;;;;;;;14.80;10.18;;;;;;;;;;6049520;29;20059;-85
2022/10/14 17:36:18;;;;;;;11.55;7.80;;;;;;;;;;6043164;29;20736;-87
2022/10/14 17:39:19;;;;;;;7.47;4.45;;;;;;;;;;6044028;29;20052;-85
2022/10/14 17:42:30;;;;;;;6.10;5.07;;;;;;;;;;6039707;29;20049;-86
2022/10/14 17:45:31;;;;;;;8.65;6.70;;;;;;;;;;6028451;29;20056;-87
2022/10/14 17:48:34;;;;;;;12.15;7.50;;;;;;;;;;6043518;29;20048;-88
2022/10/14 17:51:37;;;;;;;25.02;14.75;;;;;;;;;;6044828;29;20144;-85
2022/10/14 17:54:38;;;;;;;11.13;6.65;;;;;;;;;;6044209;29;20041;-87
2022/10/14 17:57:40;;;;;;;7.57;5.68;;;;;;;;;;6042112;29;20040;-86
2022/10/14 18:00:42;;;;;;;8.70;7.47;;;;;;;;;;6046422;29;20040;-87
2022/10/14 18:03:44;;;;;;;9.93;6.22;;;;;;;;;;6044976;29;20513;-87
2022/10/14 18:06:46;;;;;;;13.38;8.52;;;;;;;;;;6043831;29;20048;-86
2022/10/14 18:09:49;;;;;;;8.07;5.88;;;;;;;;;;6049556;29;20053;-86
2022/10/14 18:12:50;;;;;;;8.63;7.00;;;;;;;;;;6060697;29;20059;-87
2022/10/14 18:15:53;;;;;;;10.02;5.07;;;;;;;;;;6063052;29;20040;-85
2022/10/14 18:18:54;;;;;;;12.48;7.80;;;;;;;;;;6029275;29;20517;-86
2022/10/14 18:21:56;;;;;;;8.43;6.45;;;;;;;;;;6059459;29;20165;-87
2022/10/14 18:24:58;;;;;;;10.68;6.88;;;;;;;;;;6059896;29;20052;-85
2022/10/14 18:28:00;;;;;;;7.47;5.45;;;;;;;;;;6031435;29;20079;-86
2022/10/14 18:31:03;;;;;;;6.03;5.00;;;;;;;;;;6063126;29;20078;-86
2022/10/14 18:34:11;;;;;;;12.38;10.05;;;;;;;;;;6043957;29;20136;-86
2022/10/14 18:37:13;;;;;;;8.27;5.78;;;;;;;;;;6062633;29;20060;-86
2022/10/14 18:40:17;;;;;;;10.88;6.88;;;;;;;;;;6046169;29;20060;-86
2022/10/14 18:43:19;;;;;;;10.80;7.35;;;;;;;;;;6038771;29;20145;-86
2022/10/14 18:46:22;;;;;;;5.88;4.68;;;;;;;;;;6042405;29;20448;-86
2022/10/14 18:49:26;;;;;;;7.03;5.22;;;;;;;;;;6025842;29;20520;-85